Terminal Aerodrome Forecast
Issued by NWS

Home | Current Version | Previous Version | Text Only | Print | Product List | Glossary On
Versions: 1 2 3 4 5 6 7 8 9 10 11 12 13 14 15 16
027
FTUS43 KIND 040520
TAFLAF
TAF
KLAF 040520Z 0406/0506 00000KT P6SM OVC025
     FM040800 00000KT P6SM OVC035
     FM041300 VRB03KT P6SM VCSH OVC060
     FM041700 12005KT P6SM VCSH OVC015
     FM041900 12004KT 2SM -RA OVC008
     FM050000 VRB03KT P6SM OVC003
     FM050300 VRB03KT P6SM BKN008
      AMD LTD TO CLD VIS AND WIND TIL 041400=

USA.gov is the U.S. government's official web portal to all federal, state and local government web resources and services.